sensor_id;sensor_type;location;lat;lon;timestamp;temperature;humidity
17849;DHT22;9050;48.746;9.232;2022-09-09T00:00:55;14.30;99.90
17849;DHT22;9050;48.746;9.232;2022-09-09T00:03:29;14.30;99.90
17849;DHT22;9050;48.746;9.232;2022-09-09T00:06:06;14.30;99.90
17849;DHT22;9050;48.746;9.232;2022-09-09T00:08:43;14.30;99.90
17849;DHT22;9050;48.746;9.232;2022-09-09T00:11:19;14.30;99.90
17849;DHT22;9050;48.746;9.232;2022-09-09T00:13:52;14.30;99.90
17849;DHT22;9050;48.746;9.232;2022-09-09T00:16:23;14.40;99.90
17849;DHT22;9050;48.746;9.232;2022-09-09T00:18:56;14.40;99.90
17849;DHT22;9050;48.746;9.232;2022-09-09T00:21:30;14.40;99.90
17849;DHT22;9050;48.746;9.232;2022-09-09T00:24:01;14.40;99.90
17849;DHT22;9050;48.746;9.232;2022-09-09T00:26:35;14.50;99.90
17849;DHT22;9050;48.746;9.232;2022-09-09T00:29:12;14.50;99.90
17849;DHT22;9050;48.746;9.232;2022-09-09T00:31:41;14.60;99.90
17849;DHT22;9050;48.746;9.232;2022-09-09T00:34:12;14.60;99.90
17849;DHT22;9050;48.746;9.232;2022-09-09T00:36:41;14.60;99.90
17849;DHT22;9050;48.746;9.232;2022-09-09T00:39:13;14.60;99.90
17849;DHT22;9050;48.746;9.232;2022-09-09T00:41:51;14.60;99.90
17849;DHT22;9050;48.746;9.232;2022-09-09T00:44:30;14.70;99.90
17849;DHT22;9050;48.746;9.232;2022-09-09T00:47:09;14.70;99.90
17849;DHT22;9050;48.746;9.232;2022-09-09T00:49:46;14.70;99.90
17849;DHT22;9050;48.746;9.232;2022-09-09T00:52:26;14.80;99.90
17849;DHT22;9050;48.746;9.232;2022-09-09T00:55:04;14.70;99.90
17849;DHT22;9050;48.746;9.232;2022-09-09T00:57:33;14.80;99.90
17849;DHT22;9050;48.746;9.232;2022-09-09T01:00:19;14.80;99.90
17849;DHT22;9050;48.746;9.232;2022-09-09T01:02:53;14.90;99.90
17849;DHT22;9050;48.746;9.232;2022-09-09T01:05:29;14.90;99.90
17849;DHT22;9050;48.746;9.232;2022-09-09T01:08:01;14.90;99.90
17849;DHT22;9050;48.746;9.232;2022-09-09T01:10:36;14.90;99.90
17849;DHT22;9050;48.746;9.232;2022-09-09T01:13:14;14.90;99.90
17849;DHT22;9050;48.746;9.232;2022-09-09T01:15:42;15.00;99.90
17849;DHT22;9050;48.746;9.232;2022-09-09T01:18:14;14.90;99.90
17849;DHT22;9050;48.746;9.232;2022-09-09T01:20:49;14.90;99.90
17849;DHT22;9050;48.746;9.232;2022-09-09T01:23:36;14.90;99.90
17849;DHT22;9050;48.746;9.232;2022-09-09T01:26:15;14.90;99.90
17849;DHT22;9050;48.746;9.232;2022-09-09T01:28:45;14.90;99.90
17849;DHT22;9050;48.746;9.232;2022-09-09T01:31:17;14.90;99.90
17849;DHT22;9050;48.746;9.232;2022-09-09T01:33:45;14.90;99.90
17849;DHT22;9050;48.746;9.232;2022-09-09T01:36:15;14.90;99.90
17849;DHT22;9050;48.746;9.232;2022-09-09T01:38:44;14.90;99.90
17849;DHT22;9050;48.746;9.232;2022-09-09T01:41:12;15.00;99.90
17849;DHT22;9050;48.746;9.232;2022-09-09T01:43:39;15.00;99.90
17849;DHT22;9050;48.746;9.232;2022-09-09T01:46:06;15.10;99.90
17849;DHT22;9050;48.746;9.232;2022-09-09T01:48:33;15.10;99.90
17849;DHT22;9050;48.746;9.232;2022-09-09T01:51:00;15.10;99.90
17849;DHT22;9050;48.746;9.232;2022-09-09T01:53:27;15.10;99.90
17849;DHT22;9050;48.746;9.232;2022-09-09T01:56:07;15.10;99.90
17849;DHT22;9050;48.746;9.232;2022-09-09T01:58:47;15.00;99.90
17849;DHT22;9050;48.746;9.232;2022-09-09T02:01:23;15.00;99.90
17849;DHT22;9050;48.746;9.232;2022-09-09T02:03:54;15.00;99.90
17849;DHT22;9050;48.746;9.232;2022-09-09T02:06:27;14.90;99.90
17849;DHT22;9050;48.746;9.232;2022-09-09T02:08:57;14.90;99.90
17849;DHT22;9050;48.746;9.232;2022-09-09T02:11:27;15.00;99.90
17849;DHT22;9050;48.746;9.232;2022-09-09T02:13:58;14.90;99.90
17849;DHT22;9050;48.746;9.232;2022-09-09T02:16:30;14.90;99.90
17849;DHT22;9050;48.746;9.232;2022-09-09T02:19:02;14.80;99.90
17849;DHT22;9050;48.746;9.232;2022-09-09T02:21:33;14.70;99.90
17849;DHT22;9050;48.746;9.232;2022-09-09T02:24:04;14.60;99.90
17849;DHT22;9050;48.746;9.232;2022-09-09T02:26:34;14.60;99.90
17849;DHT22;9050;48.746;9.232;2022-09-09T02:29:08;14.40;99.90
17849;DHT22;9050;48.746;9.232;2022-09-09T02:31:37;14.40;99.90
17849;DHT22;9050;48.746;9.232;2022-09-09T02:34:05;14.30;99.90
17849;DHT22;9050;48.746;9.232;2022-09-09T02:36:37;14.20;99.90
17849;DHT22;9050;48.746;9.232;2022-09-09T02:39:07;14.10;99.90
17849;DHT22;9050;48.746;9.232;2022-09-09T02:41:37;14.10;99.90
17849;DHT22;9050;48.746;9.232;2022-09-09T02:44:10;14.10;99.90
17849;DHT22;9050;48.746;9.232;2022-09-09T02:46:50;14.10;99.90
17849;DHT22;9050;48.746;9.232;2022-09-09T02:49:25;14.10;99.90
17849;DHT22;9050;48.746;9.232;2022-09-09T02:52:00;14.30;99.90
17849;DHT22;9050;48.746;9.232;2022-09-09T02:54:29;14.50;99.90
17849;DHT22;9050;48.746;9.232;2022-09-09T02:57:01;14.50;99.90
17849;DHT22;9050;48.746;9.232;2022-09-09T02:59:31;14.60;99.90
17849;DHT22;9050;48.746;9.232;2022-09-09T03:01:59;14.60;99.90
17849;DHT22;9050;48.746;9.232;2022-09-09T03:04:26;14.60;99.90
17849;DHT22;9050;48.746;9.232;2022-09-09T03:06:54;14.50;99.90
17849;DHT22;9050;48.746;9.232;2022-09-09T03:09:20;14.50;99.90
17849;DHT22;9050;48.746;9.232;2022-09-09T03:11:47;14.50;99.90
17849;DHT22;9050;48.746;9.232;2022-09-09T03:14:15;14.50;99.90
17849;DHT22;9050;48.746;9.232;2022-09-09T03:16:43;14.50;99.90
17849;DHT22;9050;48.746;9.232;2022-09-09T03:19:10;14.50;99.90
17849;DHT22;9050;48.746;9.232;2022-09-09T03:21:37;14.50;99.90
17849;DHT22;9050;48.746;9.232;2022-09-09T03:24:04;14.40;99.90
17849;DHT22;9050;48.746;9.232;2022-09-09T03:26:32;14.40;99.90
17849;DHT22;9050;48.746;9.232;2022-09-09T03:28:58;14.40;99.90
17849;DHT22;9050;48.746;9.232;2022-09-09T03:31:27;14.30;99.90
17849;DHT22;9050;48.746;9.232;2022-09-09T03:33:57;14.30;99.90
17849;DHT22;9050;48.746;9.232;2022-09-09T03:36:24;14.20;99.90
17849;DHT22;9050;48.746;9.232;2022-09-09T03:38:52;14.10;99.90
17849;DHT22;9050;48.746;9.232;2022-09-09T03:41:19;14.10;99.90
17849;DHT22;9050;48.746;9.232;2022-09-09T03:43:46;14.10;99.90
17849;DHT22;9050;48.746;9.232;2022-09-09T03:46:13;14.10;99.90
17849;DHT22;9050;48.746;9.232;2022-09-09T03:48:40;14.10;99.90
17849;DHT22;9050;48.746;9.232;2022-09-09T03:51:08;14.10;99.90
17849;DHT22;9050;48.746;9.232;2022-09-09T03:53:34;14.10;99.90
17849;DHT22;9050;48.746;9.232;2022-09-09T03:56:02;14.10;99.90
17849;DHT22;9050;48.746;9.232;2022-09-09T03:58:29;14.10;99.90
17849;DHT22;9050;48.746;9.232;2022-09-09T04:00:58;14.10;99.90
17849;DHT22;9050;48.746;9.232;2022-09-09T04:03:26;14.10;99.90
17849;DHT22;9050;48.746;9.232;2022-09-09T04:05:53;14.10;99.90
17849;DHT22;9050;48.746;9.232;2022-09-09T04:08:22;14.10;99.90
17849;DHT22;9050;48.746;9.232;2022-09-09T04:10:51;14.10;99.90
17849;DHT22;9050;48.746;9.232;2022-09-09T04:13:18;14.00;99.90
17849;DHT22;9050;48.746;9.232;2022-09-09T04:15:50;13.90;99.90
17849;DHT22;9050;48.746;9.232;2022-09-09T04:18:17;13.90;99.90
17849;DHT22;9050;48.746;9.232;2022-09-09T04:20:46;13.90;99.90
17849;DHT22;9050;48.746;9.232;2022-09-09T04:23:13;13.80;99.90
17849;DHT22;9050;48.746;9.232;2022-09-09T04:25:44;13.80;99.90
17849;DHT22;9050;48.746;9.232;2022-09-09T04:28:12;13.80;99.90
17849;DHT22;9050;48.746;9.232;2022-09-09T04:30:39;13.80;99.90
17849;DHT22;9050;48.746;9.232;2022-09-09T04:33:06;13.80;99.90
17849;DHT22;9050;48.746;9.232;2022-09-09T04:35:33;13.80;99.90
17849;DHT22;9050;48.746;9.232;2022-09-09T04:38:00;13.90;99.90
17849;DHT22;9050;48.746;9.232;2022-09-09T04:40:29;13.90;99.90
17849;DHT22;9050;48.746;9.232;2022-09-09T04:42:58;13.90;99.90
17849;DHT22;9050;48.746;9.232;2022-09-09T04:45:24;13.90;99.90
17849;DHT22;9050;48.746;9.232;2022-09-09T04:47:52;13.90;99.90
17849;DHT22;9050;48.746;9.232;2022-09-09T04:50:19;14.00;99.90
17849;DHT22;9050;48.746;9.232;2022-09-09T04:52:46;14.10;99.90
17849;DHT22;9050;48.746;9.232;2022-09-09T04:55:13;14.10;99.90
17849;DHT22;9050;48.746;9.232;2022-09-09T04:57:40;14.00;99.90
17849;DHT22;9050;48.746;9.232;2022-09-09T05:00:10;14.00;99.90
17849;DHT22;9050;48.746;9.232;2022-09-09T05:02:37;13.90;99.90
17849;DHT22;9050;48.746;9.232;2022-09-09T05:05:05;13.90;99.90
17849;DHT22;9050;48.746;9.232;2022-09-09T05:07:32;13.80;99.90
17849;DHT22;9050;48.746;9.232;2022-09-09T05:09:59;13.80;99.90
17849;DHT22;9050;48.746;9.232;2022-09-09T05:12:25;13.70;99.90
17849;DHT22;9050;48.746;9.232;2022-09-09T05:14:52;13.70;99.90
17849;DHT22;9050;48.746;9.232;2022-09-09T05:17:20;13.70;99.90
17849;DHT22;9050;48.746;9.232;2022-09-09T05:19:47;13.70;99.90
17849;DHT22;9050;48.746;9.232;2022-09-09T05:22:18;13.70;99.90
17849;DHT22;9050;48.746;9.232;2022-09-09T05:24:45;13.80;99.90
17849;DHT22;9050;48.746;9.232;2022-09-09T05:27:12;13.90;99.90
17849;DHT22;9050;48.746;9.232;2022-09-09T05:29:39;14.10;99.90
17849;DHT22;9050;48.746;9.232;2022-09-09T05:32:08;14.20;99.90
17849;DHT22;9050;48.746;9.232;2022-09-09T05:34:36;14.60;99.90
17849;DHT22;9050;48.746;9.232;2022-09-09T05:37:05;15.30;99.90
17849;DHT22;9050;48.746;9.232;2022-09-09T05:39:33;16.40;99.90
17849;DHT22;9050;48.746;9.232;2022-09-09T05:42:01;16.80;99.90
17849;DHT22;9050;48.746;9.232;2022-09-09T05:44:30;16.70;99.90
17849;DHT22;9050;48.746;9.232;2022-09-09T05:46:57;16.40;99.90
17849;DHT22;9050;48.746;9.232;2022-09-09T05:49:24;15.90;99.90
17849;DHT22;9050;48.746;9.232;2022-09-09T05:51:52;15.80;99.90
17849;DHT22;9050;48.746;9.232;2022-09-09T05:54:19;15.70;99.90
17849;DHT22;9050;48.746;9.232;2022-09-09T05:56:46;15.40;99.90
17849;DHT22;9050;48.746;9.232;2022-09-09T05:59:16;15.30;99.90
17849;DHT22;9050;48.746;9.232;2022-09-09T06:01:43;15.20;99.90
17849;DHT22;9050;48.746;9.232;2022-09-09T06:04:10;15.20;99.90
17849;DHT22;9050;48.746;9.232;2022-09-09T06:06:38;15.10;99.90
17849;DHT22;9050;48.746;9.232;2022-09-09T06:09:09;15.20;99.90
17849;DHT22;9050;48.746;9.232;2022-09-09T06:11:38;15.20;99.90
17849;DHT22;9050;48.746;9.232;2022-09-09T06:14:06;15.30;99.90
17849;DHT22;9050;48.746;9.232;2022-09-09T06:16:33;15.20;99.90
17849;DHT22;9050;48.746;9.232;2022-09-09T06:19:01;15.30;99.90
17849;DHT22;9050;48.746;9.232;2022-09-09T06:21:30;15.30;99.90
17849;DHT22;9050;48.746;9.232;2022-09-09T06:23:59;15.30;99.90
17849;DHT22;9050;48.746;9.232;2022-09-09T06:26:29;15.50;99.90
17849;DHT22;9050;48.746;9.232;2022-09-09T06:28:57;15.50;99.90
17849;DHT22;9050;48.746;9.232;2022-09-09T06:31:25;15.60;99.90
17849;DHT22;9050;48.746;9.232;2022-09-09T06:33:56;15.60;99.90
17849;DHT22;9050;48.746;9.232;2022-09-09T06:36:24;15.70;99.90
17849;DHT22;9050;48.746;9.232;2022-09-09T06:38:51;15.80;99.90
17849;DHT22;9050;48.746;9.232;2022-09-09T06:41:20;15.90;99.90
17849;DHT22;9050;48.746;9.232;2022-09-09T06:43:49;16.10;99.90
17849;DHT22;9050;48.746;9.232;2022-09-09T06:46:18;16.30;99.90
17849;DHT22;9050;48.746;9.232;2022-09-09T06:48:45;16.40;99.90
17849;DHT22;9050;48.746;9.232;2022-09-09T06:51:14;16.50;99.90
17849;DHT22;9050;48.746;9.232;2022-09-09T06:53:42;16.70;99.90
17849;DHT22;9050;48.746;9.232;2022-09-09T06:56:20;16.80;99.90
17849;DHT22;9050;48.746;9.232;2022-09-09T06:58:51;17.10;99.90
17849;DHT22;9050;48.746;9.232;2022-09-09T07:01:19;17.20;99.90
17849;DHT22;9050;48.746;9.232;2022-09-09T07:03:48;17.40;99.90
17849;DHT22;9050;48.746;9.232;2022-09-09T07:06:17;17.40;99.90
17849;DHT22;9050;48.746;9.232;2022-09-09T07:08:48;17.30;99.90
17849;DHT22;9050;48.746;9.232;2022-09-09T07:11:15;17.60;99.90
17849;DHT22;9050;48.746;9.232;2022-09-09T07:13:42;17.90;99.90
17849;DHT22;9050;48.746;9.232;2022-09-09T07:16:12;18.40;99.90
17849;DHT22;9050;48.746;9.232;2022-09-09T07:18:39;18.60;99.90
17849;DHT22;9050;48.746;9.232;2022-09-09T07:21:06;18.40;99.90
17849;DHT22;9050;48.746;9.232;2022-09-09T07:23:34;18.40;99.90
17849;DHT22;9050;48.746;9.232;2022-09-09T07:26:02;19.00;99.90
17849;DHT22;9050;48.746;9.232;2022-09-09T07:28:29;19.60;99.90
17849;DHT22;9050;48.746;9.232;2022-09-09T07:30:57;20.90;99.90
17849;DHT22;9050;48.746;9.232;2022-09-09T07:33:26;22.60;99.90
17849;DHT22;9050;48.746;9.232;2022-09-09T07:36:03;24.30;99.90
17849;DHT22;9050;48.746;9.232;2022-09-09T07:38:31;25.50;99.90
17849;DHT22;9050;48.746;9.232;2022-09-09T07:41:03;25.30;99.90
17849;DHT22;9050;48.746;9.232;2022-09-09T07:43:31;24.30;99.90
17849;DHT22;9050;48.746;9.232;2022-09-09T07:45:58;23.50;99.90
17849;DHT22;9050;48.746;9.232;2022-09-09T07:48:28;24.00;99.90
